CDT,Max TemperatureF,Mean TemperatureF,Min TemperatureF,Max Dew PointF,MeanDew PointF,Min DewpointF,Max Humidity, Mean Humidity, Min Humidity, Max Sea Level PressureIn, Mean Sea Level PressureIn, Min Sea Level PressureIn, Max VisibilityMiles, Mean VisibilityMiles, Min VisibilityMiles, Max Wind SpeedMPH, Mean Wind SpeedMPH, Max Gust SpeedMPH,PrecipitationIn, CloudCover, Events, WindDirDegrees
2012-10-1,68,62,55,50,46,41,77,61,37,29.87,29.82,29.77,10,10,10,14,3,,0.00,2,,355
2012-10-2,72,62,52,55,48,39,85,67,31,29.91,29.83,29.78,10,10,10,14,4,,0.00,3,Rain,338
2012-10-3,77,68,59,57,54,39,88,73,26,30.07,29.97,29.90,10,10,7,12,4,,0.01,7,Rain,191
2012-10-4,83,68,55,59,54,47,92,76,32,30.21,30.12,30.07,10,9,1,17,4,23,0.00,2,,197
2012-10-5,55,48,40,48,44,37,93,79,69,30.24,30.21,30.18,10,10,5,14,6,,0.00,6,Rain-Thunderstorm,339
2012-10-6,54,44,36,36,33,25,91,73,33,30.26,30.23,30.19,10,10,10,15,6,,0.00,3,,300
2012-10-7,56,46,37,36,32,18,89,68,23,30.28,30.23,30.18,10,10,10,12,5,17,0.00,3,,299
2012-10-8,62,47,32,39,33,27,94,72,26,30.23,30.17,30.07,10,10,7,17,2,,0.00,0,,184
2012-10-9,69,56,44,45,40,36,82,63,30,30.08,30.02,29.92,10,10,10,21,8,22,0.00,2,,183
2012-10-10,60,49,39,45,36,19,91,72,22,30.29,30.17,30.04,10,10,5,14,7,20,0.00,2,Rain,296
2012-10-11,67,52,37,49,35,32,88,64,28,30.25,30.22,30.13,10,10,10,17,4,23,0.00,2,,176
2012-10-12,66,58,49,53,47,39,82,71,46,30.38,30.26,30.19,10,10,10,17,5,17,0.00,4,,54
2012-10-13,78,64,52,64,56,48,91,81,61,30.23,30.06,29.80,10,8,4,16,7,21,0.00,4,,143
2012-10-14,77,66,54,66,59,49,91,80,53,29.95,29.79,29.68,10,8,2,22,11,32,0.11,6,Rain,213
2012-10-15,70,58,48,49,45,36,94,74,28,30.02,29.96,29.94,10,10,10,12,5,,0.01,0,,272
2012-10-16,82,66,49,52,47,39,90,63,24,29.96,29.81,29.63,10,10,10,18,6,23,0.01,1,,143
2012-10-17,70,62,56,63,53,48,88,72,55,29.66,29.57,29.38,10,9,2,23,9,30,0.01,4,Rain-Thunderstorm,180
2012-10-18,62,56,50,51,39,25,86,60,24,29.61,29.59,29.57,10,10,10,23,11,33,0.00,3,,239
2012-10-19,55,52,49,46,45,42,87,76,67,29.78,29.63,29.54,10,9,3,21,15,29,0.01,8,Rain,253
2012-10-20,64,58,51,47,46,41,84,75,48,29.92,29.86,29.79,10,10,7,14,8,18,0.00,5,,246
2012-10-21,79,62,47,63,51,44,87,75,42,29.97,29.93,29.89,10,10,10,16,7,,0.00,1,,121
2012-10-22,73,68,64,66,61,54,88,75,60,29.97,29.94,29.92,10,10,2,16,8,23,0.02,4,Rain-Thunderstorm,154
2012-10-23,76,72,66,66,60,57,88,70,62,29.98,29.93,29.88,10,10,10,16,11,17,0.05,3,Rain-Thunderstorm,172
2012-10-24,83,75,66,66,61,58,78,69,51,29.99,29.94,29.88,10,10,10,16,10,23,0.00,1,,172
2012-10-25,83,64,47,63,57,42,87,73,48,30.18,29.91,29.78,10,10,5,28,11,34,0.00,3,Rain,179
2012-10-26,52,46,41,40,32,28,74,61,41,30.35,30.28,30.17,10,10,10,16,11,26,0.00,5,,339
2012-10-27,53,44,35,34,30,28,81,63,38,30.33,30.28,30.23,20,10,10,16,8,,0.00,1,,341
2012-10-28,53,44,37,36,32,28,81,67,44,30.28,30.25,30.22,10,10,10,16,5,,0.00,1,,341
2012-10-29,56,46,37,36,29,19,80,60,26,30.33,30.24,30.11,10,10,10,14,4,,0.00,0,,332
2012-10-30,59,49,39,30,24,19,68,45,22,30.11,30.00,29.88,10,10,10,21,9,32,0.00,1,,309
2012-10-31,56,46,35,29,24,7,78,55,15,29.98,29.94,29.91,10,10,10,17,8,,0.00,0,,295